sensor_id;sensor_type;location;lat;lon;timestamp;temperature;humidity
19359;DHT22;9815;52.334;20.890;2022-10-17T00:00:44;12.40;99.90
19359;DHT22;9815;52.334;20.890;2022-10-17T00:03:13;12.40;99.90
19359;DHT22;9815;52.334;20.890;2022-10-17T00:05:45;12.40;99.90
19359;DHT22;9815;52.334;20.890;2022-10-17T00:08:14;12.50;99.90
19359;DHT22;9815;52.334;20.890;2022-10-17T00:10:42;12.60;99.90
19359;DHT22;9815;52.334;20.890;2022-10-17T00:13:11;12.60;99.90
19359;DHT22;9815;52.334;20.890;2022-10-17T00:15:42;12.60;99.90
19359;DHT22;9815;52.334;20.890;2022-10-17T00:18:10;12.50;99.90
19359;DHT22;9815;52.334;20.890;2022-10-17T00:20:38;12.60;99.90
19359;DHT22;9815;52.334;20.890;2022-10-17T00:23:08;12.50;99.90
19359;DHT22;9815;52.334;20.890;2022-10-17T00:25:36;12.50;99.90
19359;DHT22;9815;52.334;20.890;2022-10-17T00:28:04;12.50;99.90
19359;DHT22;9815;52.334;20.890;2022-10-17T00:30:32;12.50;99.90
19359;DHT22;9815;52.334;20.890;2022-10-17T00:33:01;12.40;99.90
19359;DHT22;9815;52.334;20.890;2022-10-17T00:35:29;12.40;99.90
19359;DHT22;9815;52.334;20.890;2022-10-17T00:37:57;12.40;99.90
19359;DHT22;9815;52.334;20.890;2022-10-17T00:40:26;12.40;99.90
19359;DHT22;9815;52.334;20.890;2022-10-17T00:42:54;12.40;99.90
19359;DHT22;9815;52.334;20.890;2022-10-17T00:45:24;12.50;99.90
19359;DHT22;9815;52.334;20.890;2022-10-17T00:47:57;12.50;99.90
19359;DHT22;9815;52.334;20.890;2022-10-17T00:50:26;12.50;99.90
19359;DHT22;9815;52.334;20.890;2022-10-17T00:52:58;12.50;99.90
19359;DHT22;9815;52.334;20.890;2022-10-17T00:55:30;12.60;99.90
19359;DHT22;9815;52.334;20.890;2022-10-17T00:58:03;12.70;99.90
19359;DHT22;9815;52.334;20.890;2022-10-17T01:00:31;12.60;99.90
19359;DHT22;9815;52.334;20.890;2022-10-17T01:02:59;12.70;99.90
19359;DHT22;9815;52.334;20.890;2022-10-17T01:05:28;12.70;99.90
19359;DHT22;9815;52.334;20.890;2022-10-17T01:07:56;12.70;99.90
19359;DHT22;9815;52.334;20.890;2022-10-17T01:10:31;12.70;99.90
19359;DHT22;9815;52.334;20.890;2022-10-17T01:13:07;12.70;99.90
19359;DHT22;9815;52.334;20.890;2022-10-17T01:15:47;12.70;99.90
19359;DHT22;9815;52.334;20.890;2022-10-17T01:18:25;12.70;99.90
19359;DHT22;9815;52.334;20.890;2022-10-17T01:21:11;12.60;99.90
19359;DHT22;9815;52.334;20.890;2022-10-17T01:27:12;12.60;99.90
19359;DHT22;9815;52.334;20.890;2022-10-17T01:29:52;12.60;99.90
19359;DHT22;9815;52.334;20.890;2022-10-17T01:32:32;12.50;99.90
19359;DHT22;9815;52.334;20.890;2022-10-17T01:35:08;12.60;99.90
19359;DHT22;9815;52.334;20.890;2022-10-17T01:37:42;12.50;99.90
19359;DHT22;9815;52.334;20.890;2022-10-17T01:40:15;12.50;99.90
19359;DHT22;9815;52.334;20.890;2022-10-17T01:42:52;12.40;99.90
19359;DHT22;9815;52.334;20.890;2022-10-17T01:45:28;12.40;99.90
19359;DHT22;9815;52.334;20.890;2022-10-17T01:48:05;12.40;99.90
19359;DHT22;9815;52.334;20.890;2022-10-17T01:50:38;12.40;99.90
19359;DHT22;9815;52.334;20.890;2022-10-17T01:53:13;12.40;99.90
19359;DHT22;9815;52.334;20.890;2022-10-17T01:55:44;12.30;99.90
19359;DHT22;9815;52.334;20.890;2022-10-17T01:58:17;12.30;99.90
19359;DHT22;9815;52.334;20.890;2022-10-17T02:00:47;12.20;99.90
19359;DHT22;9815;52.334;20.890;2022-10-17T02:03:19;12.20;99.90
19359;DHT22;9815;52.334;20.890;2022-10-17T02:05:48;12.30;99.90
19359;DHT22;9815;52.334;20.890;2022-10-17T02:08:24;12.10;99.90
19359;DHT22;9815;52.334;20.890;2022-10-17T02:10:56;12.00;99.90
19359;DHT22;9815;52.334;20.890;2022-10-17T02:13:33;12.00;99.90
19359;DHT22;9815;52.334;20.890;2022-10-17T02:16:16;12.00;99.90
19359;DHT22;9815;52.334;20.890;2022-10-17T02:19:15;11.90;99.90
19359;DHT22;9815;52.334;20.890;2022-10-17T02:21:52;11.90;99.90
19359;DHT22;9815;52.334;20.890;2022-10-17T02:24:30;11.90;99.90
19359;DHT22;9815;52.334;20.890;2022-10-17T02:27:03;11.90;99.90
19359;DHT22;9815;52.334;20.890;2022-10-17T02:29:37;11.90;99.90
19359;DHT22;9815;52.334;20.890;2022-10-17T02:32:08;11.80;99.90
19359;DHT22;9815;52.334;20.890;2022-10-17T02:34:40;11.80;99.90
19359;DHT22;9815;52.334;20.890;2022-10-17T02:37:11;11.80;99.90
19359;DHT22;9815;52.334;20.890;2022-10-17T02:39:42;11.70;99.90
19359;DHT22;9815;52.334;20.890;2022-10-17T02:42:12;11.70;99.90
19359;DHT22;9815;52.334;20.890;2022-10-17T02:44:42;11.60;99.90
19359;DHT22;9815;52.334;20.890;2022-10-17T02:47:18;11.60;99.90
19359;DHT22;9815;52.334;20.890;2022-10-17T02:49:52;11.60;99.90
19359;DHT22;9815;52.334;20.890;2022-10-17T02:52:26;11.50;99.90
19359;DHT22;9815;52.334;20.890;2022-10-17T02:54:59;11.50;99.90
19359;DHT22;9815;52.334;20.890;2022-10-17T02:57:31;11.50;99.90
19359;DHT22;9815;52.334;20.890;2022-10-17T03:00:04;11.50;99.90
19359;DHT22;9815;52.334;20.890;2022-10-17T03:02:39;11.50;99.90
19359;DHT22;9815;52.334;20.890;2022-10-17T03:05:11;11.40;99.90
19359;DHT22;9815;52.334;20.890;2022-10-17T03:07:39;11.40;99.90
19359;DHT22;9815;52.334;20.890;2022-10-17T03:10:07;11.40;99.90
19359;DHT22;9815;52.334;20.890;2022-10-17T03:12:36;11.40;99.90
19359;DHT22;9815;52.334;20.890;2022-10-17T03:15:05;11.30;99.90
19359;DHT22;9815;52.334;20.890;2022-10-17T03:17:33;11.30;99.90
19359;DHT22;9815;52.334;20.890;2022-10-17T03:20:02;11.20;99.90
19359;DHT22;9815;52.334;20.890;2022-10-17T03:22:32;11.30;99.90
19359;DHT22;9815;52.334;20.890;2022-10-17T03:25:02;11.30;99.90
19359;DHT22;9815;52.334;20.890;2022-10-17T03:27:33;11.40;99.90
19359;DHT22;9815;52.334;20.890;2022-10-17T03:30:02;11.40;99.90
19359;DHT22;9815;52.334;20.890;2022-10-17T03:32:32;11.40;99.90
19359;DHT22;9815;52.334;20.890;2022-10-17T03:35:00;11.50;99.90
19359;DHT22;9815;52.334;20.890;2022-10-17T03:37:28;11.60;99.90
19359;DHT22;9815;52.334;20.890;2022-10-17T03:39:59;11.60;99.90
19359;DHT22;9815;52.334;20.890;2022-10-17T03:42:28;11.70;99.90
19359;DHT22;9815;52.334;20.890;2022-10-17T03:44:57;11.70;99.90
19359;DHT22;9815;52.334;20.890;2022-10-17T03:47:25;11.70;99.90
19359;DHT22;9815;52.334;20.890;2022-10-17T03:49:53;11.70;99.90
19359;DHT22;9815;52.334;20.890;2022-10-17T03:52:21;11.70;99.90
19359;DHT22;9815;52.334;20.890;2022-10-17T03:54:49;11.70;99.90
19359;DHT22;9815;52.334;20.890;2022-10-17T03:57:19;11.70;99.90
19359;DHT22;9815;52.334;20.890;2022-10-17T03:59:49;11.70;99.90
19359;DHT22;9815;52.334;20.890;2022-10-17T04:02:19;11.70;99.90
19359;DHT22;9815;52.334;20.890;2022-10-17T04:04:48;11.70;99.90
19359;DHT22;9815;52.334;20.890;2022-10-17T04:07:17;11.80;99.90
19359;DHT22;9815;52.334;20.890;2022-10-17T04:09:47;11.80;99.90
19359;DHT22;9815;52.334;20.890;2022-10-17T04:12:20;11.70;99.90
19359;DHT22;9815;52.334;20.890;2022-10-17T04:14:48;11.70;99.90
19359;DHT22;9815;52.334;20.890;2022-10-17T04:17:16;11.60;99.90
19359;DHT22;9815;52.334;20.890;2022-10-17T04:19:44;11.60;99.90
19359;DHT22;9815;52.334;20.890;2022-10-17T04:22:15;11.50;99.90
19359;DHT22;9815;52.334;20.890;2022-10-17T04:24:43;11.40;99.90
19359;DHT22;9815;52.334;20.890;2022-10-17T04:27:33;11.40;99.90
19359;DHT22;9815;52.334;20.890;2022-10-17T04:30:02;11.40;99.90
19359;DHT22;9815;52.334;20.890;2022-10-17T04:32:35;11.30;99.90
19359;DHT22;9815;52.334;20.890;2022-10-17T04:35:13;11.30;99.90
19359;DHT22;9815;52.334;20.890;2022-10-17T04:37:46;11.30;99.90
19359;DHT22;9815;52.334;20.890;2022-10-17T04:40:17;11.30;99.90
19359;DHT22;9815;52.334;20.890;2022-10-17T04:42:46;11.20;99.90
19359;DHT22;9815;52.334;20.890;2022-10-17T04:45:19;11.20;99.90
19359;DHT22;9815;52.334;20.890;2022-10-17T04:47:50;11.20;99.90
19359;DHT22;9815;52.334;20.890;2022-10-17T04:50:18;11.20;99.90
19359;DHT22;9815;52.334;20.890;2022-10-17T04:53:06;11.30;99.90
19359;DHT22;9815;52.334;20.890;2022-10-17T04:55:38;11.30;99.90
19359;DHT22;9815;52.334;20.890;2022-10-17T04:58:07;11.30;99.90
19359;DHT22;9815;52.334;20.890;2022-10-17T05:00:36;11.40;99.90
19359;DHT22;9815;52.334;20.890;2022-10-17T05:03:11;11.40;99.90
19359;DHT22;9815;52.334;20.890;2022-10-17T05:05:41;11.40;99.90
19359;DHT22;9815;52.334;20.890;2022-10-17T05:08:11;11.40;99.90
19359;DHT22;9815;52.334;20.890;2022-10-17T05:10:41;11.40;99.90
19359;DHT22;9815;52.334;20.890;2022-10-17T05:13:10;11.40;99.90
19359;DHT22;9815;52.334;20.890;2022-10-17T05:15:39;11.40;99.90
19359;DHT22;9815;52.334;20.890;2022-10-17T05:18:07;11.40;99.90
19359;DHT22;9815;52.334;20.890;2022-10-17T05:20:36;11.40;99.90
19359;DHT22;9815;52.334;20.890;2022-10-17T05:23:05;11.40;99.90
19359;DHT22;9815;52.334;20.890;2022-10-17T05:25:38;11.30;99.90
19359;DHT22;9815;52.334;20.890;2022-10-17T05:28:06;11.20;99.90
19359;DHT22;9815;52.334;20.890;2022-10-17T05:30:36;11.30;99.90
19359;DHT22;9815;52.334;20.890;2022-10-17T05:33:07;11.30;99.90
19359;DHT22;9815;52.334;20.890;2022-10-17T05:35:35;11.30;99.90
19359;DHT22;9815;52.334;20.890;2022-10-17T05:38:06;11.40;99.90
19359;DHT22;9815;52.334;20.890;2022-10-17T05:40:35;11.40;99.90
19359;DHT22;9815;52.334;20.890;2022-10-17T05:43:05;11.50;99.90
19359;DHT22;9815;52.334;20.890;2022-10-17T05:45:33;11.60;99.90
19359;DHT22;9815;52.334;20.890;2022-10-17T05:48:02;11.60;99.90
19359;DHT22;9815;52.334;20.890;2022-10-17T05:50:32;11.70;99.90
19359;DHT22;9815;52.334;20.890;2022-10-17T05:53:11;11.80;99.90
19359;DHT22;9815;52.334;20.890;2022-10-17T05:55:44;11.80;99.90
19359;DHT22;9815;52.334;20.890;2022-10-17T05:58:12;11.80;99.90
19359;DHT22;9815;52.334;20.890;2022-10-17T06:00:57;11.90;99.90
19359;DHT22;9815;52.334;20.890;2022-10-17T06:03:27;11.90;99.90
19359;DHT22;9815;52.334;20.890;2022-10-17T06:06:01;11.90;99.90
19359;DHT22;9815;52.334;20.890;2022-10-17T06:08:29;11.90;99.90
19359;DHT22;9815;52.334;20.890;2022-10-17T06:10:59;12.00;99.90
19359;DHT22;9815;52.334;20.890;2022-10-17T06:13:35;12.00;99.90
19359;DHT22;9815;52.334;20.890;2022-10-17T06:16:09;12.10;99.90
19359;DHT22;9815;52.334;20.890;2022-10-17T06:18:38;12.20;99.90
19359;DHT22;9815;52.334;20.890;2022-10-17T06:21:08;12.30;99.90
19359;DHT22;9815;52.334;20.890;2022-10-17T06:23:40;12.40;99.90
19359;DHT22;9815;52.334;20.890;2022-10-17T06:26:28;12.50;99.90
19359;DHT22;9815;52.334;20.890;2022-10-17T06:28:56;12.70;99.90
19359;DHT22;9815;52.334;20.890;2022-10-17T06:31:28;12.70;99.90
19359;DHT22;9815;52.334;20.890;2022-10-17T06:33:58;12.90;99.90
19359;DHT22;9815;52.334;20.890;2022-10-17T06:36:26;13.00;99.90
19359;DHT22;9815;52.334;20.890;2022-10-17T06:38:54;13.10;99.90
19359;DHT22;9815;52.334;20.890;2022-10-17T06:41:36;13.20;99.90
19359;DHT22;9815;52.334;20.890;2022-10-17T06:44:07;13.30;99.90
19359;DHT22;9815;52.334;20.890;2022-10-17T06:46:47;13.40;99.90
19359;DHT22;9815;52.334;20.890;2022-10-17T06:49:18;13.50;99.90
19359;DHT22;9815;52.334;20.890;2022-10-17T06:51:51;13.60;99.90
19359;DHT22;9815;52.334;20.890;2022-10-17T06:54:24;13.70;99.90
19359;DHT22;9815;52.334;20.890;2022-10-17T06:57:05;13.90;99.90
19359;DHT22;9815;52.334;20.890;2022-10-17T06:59:51;14.00;99.90
19359;DHT22;9815;52.334;20.890;2022-10-17T07:02:27;14.00;99.90
19359;DHT22;9815;52.334;20.890;2022-10-17T07:05:00;14.20;99.90
19359;DHT22;9815;52.334;20.890;2022-10-17T07:07:29;14.30;99.90
19359;DHT22;9815;52.334;20.890;2022-10-17T07:09:58;14.30;99.90
19359;DHT22;9815;52.334;20.890;2022-10-17T07:12:26;14.40;99.90
19359;DHT22;9815;52.334;20.890;2022-10-17T07:14:54;14.50;99.90
19359;DHT22;9815;52.334;20.890;2022-10-17T07:17:22;14.50;99.90
19359;DHT22;9815;52.334;20.890;2022-10-17T07:19:50;14.70;99.90
19359;DHT22;9815;52.334;20.890;2022-10-17T07:22:20;14.80;99.90
19359;DHT22;9815;52.334;20.890;2022-10-17T07:24:52;14.90;99.90
19359;DHT22;9815;52.334;20.890;2022-10-17T07:27:26;15.00;99.90
19359;DHT22;9815;52.334;20.890;2022-10-17T07:29:55;15.10;99.90
19359;DHT22;9815;52.334;20.890;2022-10-17T07:32:33;15.30;99.90
19359;DHT22;9815;52.334;20.890;2022-10-17T07:35:03;15.20;99.90
19359;DHT22;9815;52.334;20.890;2022-10-17T07:37:33;15.30;99.90
19359;DHT22;9815;52.334;20.890;2022-10-17T07:40:01;15.40;99.90
19359;DHT22;9815;52.334;20.890;2022-10-17T07:42:29;15.40;99.90
19359;DHT22;9815;52.334;20.890;2022-10-17T07:44:57;15.50;99.90
19359;DHT22;9815;52.334;20.890;2022-10-17T07:47:27;15.50;99.90
19359;DHT22;9815;52.334;20.890;2022-10-17T07:49:58;15.60;99.90
19359;DHT22;9815;52.334;20.890;2022-10-17T07:52:26;15.60;99.90
19359;DHT22;9815;52.334;20.890;2022-10-17T07:54:56;15.70;99.90
19359;DHT22;9815;52.334;20.890;2022-10-17T07:57:24;15.70;99.90
19359;DHT22;9815;52.334;20.890;2022-10-17T07:59:52;15.80;99.90
19359;DHT22;9815;52.334;20.890;2022-10-17T08:02:22;15.90;99.90
19359;DHT22;9815;52.334;20.890;2022-10-17T08:04:50;15.90;99.90
19359;DHT22;9815;52.334;20.890;2022-10-17T08:07:19;15.90;99.90
19359;DHT22;9815;52.334;20.890;2022-10-17T08:09:56;16.00;99.90
19359;DHT22;9815;52.334;20.890;2022-10-17T08:12:24;16.10;99.90
19359;DHT22;9815;52.334;20.890;2022-10-17T08:14:55;16.10;99.90
19359;DHT22;9815;52.334;20.890;2022-10-17T08:17:23;16.20;99.90
19359;DHT22;9815;52.334;20.890;2022-10-17T08:19:51;16.20;99.90
19359;DHT22;9815;52.334;20.890;2022-10-17T08:22:19;16.30;99.90
19359;DHT22;9815;52.334;20.890;2022-10-17T08:24:47;16.30;99.90
19359;DHT22;9815;52.334;20.890;2022-10-17T08:27:17;16.40;99.90
19359;DHT22;9815;52.334;20.890;2022-10-17T08:29:50;16.40;99.90
19359;DHT22;9815;52.334;20.890;2022-10-17T08:32:20;16.50;99.90
19359;DHT22;9815;52.334;20.890;2022-10-17T08:34:50;16.60;99.90
19359;DHT22;9815;52.334;20.890;2022-10-17T08:37:18;16.70;99.90
19359;DHT22;9815;52.334;20.890;2022-10-17T08:39:47;16.90;99.90
19359;DHT22;9815;52.334;20.890;2022-10-17T08:42:44;17.00;99.90
19359;DHT22;9815;52.334;20.890;2022-10-17T08:45:22;17.20;99.90
19359;DHT22;9815;52.334;20.890;2022-10-17T08:47:52;17.40;99.90
19359;DHT22;9815;52.334;20.890;2022-10-17T08:50:27;17.50;99.90
19359;DHT22;9815;52.334;20.890;2022-10-17T08:53:02;17.50;99.90
19359;DHT22;9815;52.334;20.890;2022-10-17T08:55:34;17.60;99.90
19359;DHT22;9815;52.334;20.890;2022-10-17T08:58:14;17.70;99.90
19359;DHT22;9815;52.334;20.890;2022-10-17T09:00:49;17.90;99.90
19359;DHT22;9815;52.334;20.890;2022-10-17T09:06:18;18.20;99.90
19359;DHT22;9815;52.334;20.890;2022-10-17T09:09:02;18.30;99.90
19359;DHT22;9815;52.334;20.890;2022-10-17T09:11:45;18.50;99.90
19359;DHT22;9815;52.334;20.890;2022-10-17T09:14:40;18.60;99.90
19359;DHT22;9815;52.334;20.890;2022-10-17T09:17:17;18.90;99.50
19359;DHT22;9815;52.334;20.890;2022-10-17T09:19:56;19.10;96.40
19359;DHT22;9815;52.334;20.890;2022-10-17T09:22:29;19.30;96.40
19359;DHT22;9815;52.334;20.890;2022-10-17T09:25:03;19.40;94.00
19359;DHT22;9815;52.334;20.890;2022-10-17T09:27:35;19.50;94.20
19359;DHT22;9815;52.334;20.890;2022-10-17T09:30:24;19.60;93.30
19359;DHT22;9815;52.334;20.890;2022-10-17T09:33:12;19.60;93.30
19359;DHT22;9815;52.334;20.890;2022-10-17T09:36:03;19.60;93.00
19359;DHT22;9815;52.334;20.890;2022-10-17T09:38:37;19.80;92.10
19359;DHT22;9815;52.334;20.890;2022-10-17T09:41:11;19.90;91.60
19359;DHT22;9815;52.334;20.890;2022-10-17T09:44:13;20.10;91.50
19359;DHT22;9815;52.334;20.890;2022-10-17T09:47:05;20.40;89.90
19359;DHT22;9815;52.334;20.890;2022-10-17T09:49:38;20.60;86.60
19359;DHT22;9815;52.334;20.890;2022-10-17T09:52:11;20.90;85.50
19359;DHT22;9815;52.334;20.890;2022-10-17T09:54:43;21.10;82.30
19359;DHT22;9815;52.334;20.890;2022-10-17T09:57:13;21.30;80.80
19359;DHT22;9815;52.334;20.890;2022-10-17T09:59:45;21.50;78.70
19359;DHT22;9815;52.334;20.890;2022-10-17T10:02:22;21.70;81.40
19359;DHT22;9815;52.334;20.890;2022-10-17T10:04:56;21.80;75.40
19359;DHT22;9815;52.334;20.890;2022-10-17T10:07:31;22.10;76.40
19359;DHT22;9815;52.334;20.890;2022-10-17T10:10:00;22.30;75.80
19359;DHT22;9815;52.334;20.890;2022-10-17T10:12:33;22.60;71.10
19359;DHT22;9815;52.334;20.890;2022-10-17T10:15:32;22.60;71.20
19359;DHT22;9815;52.334;20.890;2022-10-17T10:18:06;22.60;69.80
19359;DHT22;9815;52.334;20.890;2022-10-17T10:21:03;22.70;70.10
19359;DHT22;9815;52.334;20.890;2022-10-17T10:23:31;22.80;67.90
19359;DHT22;9815;52.334;20.890;2022-10-17T10:26:02;23.00;66.00
19359;DHT22;9815;52.334;20.890;2022-10-17T10:28:33;22.90;65.70
19359;DHT22;9815;52.334;20.890;2022-10-17T10:31:05;22.90;68.30
19359;DHT22;9815;52.334;20.890;2022-10-17T10:33:36;22.80;68.40
19359;DHT22;9815;52.334;20.890;2022-10-17T10:36:09;22.80;67.50
19359;DHT22;9815;52.334;20.890;2022-10-17T10:38:39;23.00;68.70
19359;DHT22;9815;52.334;20.890;2022-10-17T10:41:09;23.10;65.30
19359;DHT22;9815;52.334;20.890;2022-10-17T10:43:41;23.20;66.40
19359;DHT22;9815;52.334;20.890;2022-10-17T10:46:17;23.30;64.60
19359;DHT22;9815;52.334;20.890;2022-10-17T10:48:53;23.40;64.40
19359;DHT22;9815;52.334;20.890;2022-10-17T10:51:28;23.60;61.50
19359;DHT22;9815;52.334;20.890;2022-10-17T10:54:02;23.50;63.80
19359;DHT22;9815;52.334;20.890;2022-10-17T10:56:36;23.10;63.20
19359;DHT22;9815;52.334;20.890;2022-10-17T10:59:12;22.80;67.90
19359;DHT22;9815;52.334;20.890;2022-10-17T11:01:47;22.90;65.60
19359;DHT22;9815;52.334;20.890;2022-10-17T11:04:25;23.10;66.80
19359;DHT22;9815;52.334;20.890;2022-10-17T11:06:59;23.30;64.30
19359;DHT22;9815;52.334;20.890;2022-10-17T11:09:39;23.50;63.20
19359;DHT22;9815;52.334;20.890;2022-10-17T11:12:12;23.80;61.30
19359;DHT22;9815;52.334;20.890;2022-10-17T11:14:45;24.00;60.10
19359;DHT22;9815;52.334;20.890;2022-10-17T11:17:26;24.20;59.40
19359;DHT22;9815;52.334;20.890;2022-10-17T11:20:02;24.30;58.80
19359;DHT22;9815;52.334;20.890;2022-10-17T11:22:37;24.40;59.70
19359;DHT22;9815;52.334;20.890;2022-10-17T11:25:20;24.60;58.60
19359;DHT22;9815;52.334;20.890;2022-10-17T11:27:48;24.60;55.80
19359;DHT22;9815;52.334;20.890;2022-10-17T11:30:17;24.60;57.70
19359;DHT22;9815;52.334;20.890;2022-10-17T11:32:46;24.50;56.00
19359;DHT22;9815;52.334;20.890;2022-10-17T11:35:19;24.40;56.10
19359;DHT22;9815;52.334;20.890;2022-10-17T11:37:57;24.60;58.20
19359;DHT22;9815;52.334;20.890;2022-10-17T11:40:29;24.70;56.30
19359;DHT22;9815;52.334;20.890;2022-10-17T11:43:00;24.60;55.70
19359;DHT22;9815;52.334;20.890;2022-10-17T11:45:32;24.60;54.90
19359;DHT22;9815;52.334;20.890;2022-10-17T11:48:05;24.70;55.60
19359;DHT22;9815;52.334;20.890;2022-10-17T11:50:36;24.70;54.30
19359;DHT22;9815;52.334;20.890;2022-10-17T11:53:28;24.80;54.70
19359;DHT22;9815;52.334;20.890;2022-10-17T11:55:59;24.70;54.30
19359;DHT22;9815;52.334;20.890;2022-10-17T11:58:33;24.50;55.60
19359;DHT22;9815;52.334;20.890;2022-10-17T12:01:13;24.70;54.60
19359;DHT22;9815;52.334;20.890;2022-10-17T12:03:56;24.70;53.50
19359;DHT22;9815;52.334;20.890;2022-10-17T12:06:36;24.60;54.10
19359;DHT22;9815;52.334;20.890;2022-10-17T12:09:14;24.60;55.10
19359;DHT22;9815;52.334;20.890;2022-10-17T12:11:48;24.70;54.50
19359;DHT22;9815;52.334;20.890;2022-10-17T12:14:40;24.50;54.60
19359;DHT22;9815;52.334;20.890;2022-10-17T12:17:32;24.00;55.20
19359;DHT22;9815;52.334;20.890;2022-10-17T12:20:32;23.90;56.20
19359;DHT22;9815;52.334;20.890;2022-10-17T12:23:13;23.80;58.60
19359;DHT22;9815;52.334;20.890;2022-10-17T12:25:50;23.80;58.20
19359;DHT22;9815;52.334;20.890;2022-10-17T12:28:25;23.90;57.70
19359;DHT22;9815;52.334;20.890;2022-10-17T12:30:56;23.70;57.70
19359;DHT22;9815;52.334;20.890;2022-10-17T12:33:30;23.60;59.20
19359;DHT22;9815;52.334;20.890;2022-10-17T12:39:47;23.30;60.10
19359;DHT22;9815;52.334;20.890;2022-10-17T12:42:32;23.60;60.40
19359;DHT22;9815;52.334;20.890;2022-10-17T12:45:46;23.70;58.30
19359;DHT22;9815;52.334;20.890;2022-10-17T12:51:13;23.70;58.50
19359;DHT22;9815;52.334;20.890;2022-10-17T12:54:08;23.70;59.20
19359;DHT22;9815;52.334;20.890;2022-10-17T12:56:41;23.90;58.20
19359;DHT22;9815;52.334;20.890;2022-10-17T12:59:15;23.90;58.10
19359;DHT22;9815;52.334;20.890;2022-10-17T13:01:46;23.70;59.00
19359;DHT22;9815;52.334;20.890;2022-10-17T13:04:15;23.60;58.60
19359;DHT22;9815;52.334;20.890;2022-10-17T13:06:45;23.50;59.10
19359;DHT22;9815;52.334;20.890;2022-10-17T13:09:23;23.40;59.10
19359;DHT22;9815;52.334;20.890;2022-10-17T13:11:52;23.40;60.10
19359;DHT22;9815;52.334;20.890;2022-10-17T13:14:22;23.20;59.90
19359;DHT22;9815;52.334;20.890;2022-10-17T13:16:53;23.10;60.70
19359;DHT22;9815;52.334;20.890;2022-10-17T13:19:22;22.90;62.40
19359;DHT22;9815;52.334;20.890;2022-10-17T13:21:52;22.60;63.50
19359;DHT22;9815;52.334;20.890;2022-10-17T13:24:25;22.50;64.70
19359;DHT22;9815;52.334;20.890;2022-10-17T13:26:54;22.40;65.70
19359;DHT22;9815;52.334;20.890;2022-10-17T13:29:24;22.20;66.50
19359;DHT22;9815;52.334;20.890;2022-10-17T13:31:57;22.00;67.80
19359;DHT22;9815;52.334;20.890;2022-10-17T13:34:27;21.90;69.90
19359;DHT22;9815;52.334;20.890;2022-10-17T13:36:56;21.80;69.10
19359;DHT22;9815;52.334;20.890;2022-10-17T13:39:27;21.70;70.70
19359;DHT22;9815;52.334;20.890;2022-10-17T13:42:20;21.60;71.80
19359;DHT22;9815;52.334;20.890;2022-10-17T13:44:51;21.50;72.40
19359;DHT22;9815;52.334;20.890;2022-10-17T13:47:21;21.50;73.40
19359;DHT22;9815;52.334;20.890;2022-10-17T13:49:50;21.50;73.30
19359;DHT22;9815;52.334;20.890;2022-10-17T13:52:24;21.40;73.40
19359;DHT22;9815;52.334;20.890;2022-10-17T13:54:54;21.40;74.50
19359;DHT22;9815;52.334;20.890;2022-10-17T13:57:32;21.40;74.70
19359;DHT22;9815;52.334;20.890;2022-10-17T14:00:06;21.30;75.00
19359;DHT22;9815;52.334;20.890;2022-10-17T14:02:40;21.20;76.80
19359;DHT22;9815;52.334;20.890;2022-10-17T14:05:11;21.20;78.60
19359;DHT22;9815;52.334;20.890;2022-10-17T14:07:49;21.10;77.10
19359;DHT22;9815;52.334;20.890;2022-10-17T14:10:39;21.00;77.80
19359;DHT22;9815;52.334;20.890;2022-10-17T14:13:18;20.80;78.70
19359;DHT22;9815;52.334;20.890;2022-10-17T14:15:49;20.70;81.00
19359;DHT22;9815;52.334;20.890;2022-10-17T14:18:19;20.60;82.40
19359;DHT22;9815;52.334;20.890;2022-10-17T14:20:49;20.40;84.70
19359;DHT22;9815;52.334;20.890;2022-10-17T14:23:39;20.40;84.90
19359;DHT22;9815;52.334;20.890;2022-10-17T14:26:10;20.30;85.30
19359;DHT22;9815;52.334;20.890;2022-10-17T14:28:40;20.20;85.50
19359;DHT22;9815;52.334;20.890;2022-10-17T14:31:24;20.20;87.60
19359;DHT22;9815;52.334;20.890;2022-10-17T14:33:53;20.10;88.00
19359;DHT22;9815;52.334;20.890;2022-10-17T14:36:30;20.10;87.90
19359;DHT22;9815;52.334;20.890;2022-10-17T14:38:59;20.00;89.80
19359;DHT22;9815;52.334;20.890;2022-10-17T14:41:30;19.90;89.60
19359;DHT22;9815;52.334;20.890;2022-10-17T14:44:24;19.90;90.30
19359;DHT22;9815;52.334;20.890;2022-10-17T14:46:56;19.80;90.40
19359;DHT22;9815;52.334;20.890;2022-10-17T14:49:33;19.80;90.90
19359;DHT22;9815;52.334;20.890;2022-10-17T14:52:19;19.70;91.60
19359;DHT22;9815;52.334;20.890;2022-10-17T14:54:50;19.60;91.90
19359;DHT22;9815;52.334;20.890;2022-10-17T14:57:22;19.60;92.30
19359;DHT22;9815;52.334;20.890;2022-10-17T14:59:50;19.50;93.20
19359;DHT22;9815;52.334;20.890;2022-10-17T15:02:23;19.40;94.20
19359;DHT22;9815;52.334;20.890;2022-10-17T15:04:51;19.30;94.70
19359;DHT22;9815;52.334;20.890;2022-10-17T15:07:19;19.20;94.80
19359;DHT22;9815;52.334;20.890;2022-10-17T15:09:49;19.10;95.30
19359;DHT22;9815;52.334;20.890;2022-10-17T15:12:19;19.00;96.30
19359;DHT22;9815;52.334;20.890;2022-10-17T15:14:48;18.90;97.20
19359;DHT22;9815;52.334;20.890;2022-10-17T15:17:18;18.80;97.70
19359;DHT22;9815;52.334;20.890;2022-10-17T15:19:48;18.60;98.80
19359;DHT22;9815;52.334;20.890;2022-10-17T15:22:17;18.50;99.40
19359;DHT22;9815;52.334;20.890;2022-10-17T15:24:45;18.40;99.90
19359;DHT22;9815;52.334;20.890;2022-10-17T15:27:15;18.20;99.90
19359;DHT22;9815;52.334;20.890;2022-10-17T15:29:44;18.10;99.90
19359;DHT22;9815;52.334;20.890;2022-10-17T15:32:13;17.90;99.90
19359;DHT22;9815;52.334;20.890;2022-10-17T15:34:41;17.80;99.90
19359;DHT22;9815;52.334;20.890;2022-10-17T15:37:16;17.70;99.90
19359;DHT22;9815;52.334;20.890;2022-10-17T15:39:48;17.60;99.90
19359;DHT22;9815;52.334;20.890;2022-10-17T15:42:20;17.50;99.90
19359;DHT22;9815;52.334;20.890;2022-10-17T15:44:49;17.40;99.90
19359;DHT22;9815;52.334;20.890;2022-10-17T15:47:22;17.30;99.90
19359;DHT22;9815;52.334;20.890;2022-10-17T15:49:51;17.20;99.90
19359;DHT22;9815;52.334;20.890;2022-10-17T15:52:20;17.20;99.90
19359;DHT22;9815;52.334;20.890;2022-10-17T15:54:49;17.10;99.90
19359;DHT22;9815;52.334;20.890;2022-10-17T15:57:20;17.10;99.90
19359;DHT22;9815;52.334;20.890;2022-10-17T15:59:50;17.00;99.90
19359;DHT22;9815;52.334;20.890;2022-10-17T16:02:20;16.90;99.90
19359;DHT22;9815;52.334;20.890;2022-10-17T16:04:50;16.90;99.90
19359;DHT22;9815;52.334;20.890;2022-10-17T16:07:20;16.80;99.90
19359;DHT22;9815;52.334;20.890;2022-10-17T16:09:48;16.80;99.90
19359;DHT22;9815;52.334;20.890;2022-10-17T16:12:18;16.70;99.90
19359;DHT22;9815;52.334;20.890;2022-10-17T16:14:49;16.70;99.90
19359;DHT22;9815;52.334;20.890;2022-10-17T16:17:17;16.80;99.90
19359;DHT22;9815;52.334;20.890;2022-10-17T16:19:45;16.70;99.90